Time;durP1;ratioP1;P1;durP2;ratioP2;P2;SDS_P1;SDS_P2;PMS_P1;PMS_P2;Temp;Humidity;BMP_temperature;BMP_pressure;BME280_temperature;BME280_humidity;BME280_pressure;Samples;Min_cycle;Max_cycle;Signal;HPM_P1;HPM_P2
2022/12/14 00:00:09;;;;;;;63.40;34.28;;;;;;;;;;5072303;28;20431;-81
2022/12/14 00:02:35;;;;;;;65.88;34.83;;;;;;;;;;5074781;28;20431;-82
2022/12/14 00:05:04;;;;;;;64.72;35.88;;;;;;;;;;5076427;28;20421;-82
2022/12/14 00:07:30;;;;;;;62.65;33.83;;;;;;;;;;5071008;28;20420;-82
2022/12/14 00:09:57;;;;;;;66.80;37.47;;;;;;;;;;5071657;28;20432;-82
2022/12/14 00:12:23;;;;;;;60.13;35.05;;;;;;;;;;5071727;28;20865;-82
2022/12/14 00:14:50;;;;;;;55.75;33.50;;;;;;;;;;5071095;28;20425;-83
2022/12/14 00:17:16;;;;;;;63.30;36.00;;;;;;;;;;5076537;28;20420;-81
2022/12/14 00:19:42;;;;;;;62.40;34.50;;;;;;;;;;5072755;28;20449;-83
2022/12/14 00:22:10;;;;;;;65.63;35.92;;;;;;;;;;5072348;28;20413;-82
2022/12/14 00:24:36;;;;;;;60.10;34.28;;;;;;;;;;5072898;28;20417;-81
2022/12/14 00:27:02;;;;;;;61.35;33.88;;;;;;;;;;5075020;28;20413;-84
2022/12/14 00:29:29;;;;;;;63.90;33.03;;;;;;;;;;5071893;28;20423;-81
2022/12/14 00:31:55;;;;;;;64.60;34.67;;;;;;;;;;5072940;28;20408;-82
2022/12/14 00:34:22;;;;;;;66.82;34.58;;;;;;;;;;5074124;28;20417;-81
2022/12/14 00:36:48;;;;;;;59.28;32.33;;;;;;;;;;5074363;28;20883;-83
2022/12/14 00:39:16;;;;;;;58.10;33.80;;;;;;;;;;5075131;28;20417;-83
2022/12/14 00:41:43;;;;;;;57.03;32.78;;;;;;;;;;5072850;28;20409;-83
2022/12/14 00:44:09;;;;;;;56.72;33.38;;;;;;;;;;5072480;28;20417;-83
2022/12/14 00:46:35;;;;;;;62.75;33.05;;;;;;;;;;5073816;28;20780;-81
2022/12/14 00:49:01;;;;;;;57.53;32.88;;;;;;;;;;5069786;28;20962;-81
2022/12/14 00:51:28;;;;;;;59.75;32.40;;;;;;;;;;5073310;28;20415;-82
2022/12/14 00:53:54;;;;;;;55.60;32.78;;;;;;;;;;5075054;28;20415;-83
2022/12/14 00:56:22;;;;;;;60.03;33.30;;;;;;;;;;5076413;28;20440;-81
2022/12/14 00:58:52;;;;;;;60.65;31.75;;;;;;;;;;5076834;28;20435;-83
2022/12/14 01:01:18;;;;;;;58.85;31.15;;;;;;;;;;5076779;28;20431;-81
2022/12/14 01:03:44;;;;;;;58.15;31.92;;;;;;;;;;5077131;28;20518;-81
2022/12/14 01:06:14;;;;;;;58.70;32.72;;;;;;;;;;5074997;28;20428;-81
2022/12/14 01:08:41;;;;;;;58.70;31.50;;;;;;;;;;5068460;28;20512;-81
2022/12/14 01:11:08;;;;;;;60.17;31.57;;;;;;;;;;5074029;28;20595;-82
2022/12/14 01:13:36;;;;;;;55.17;29.13;;;;;;;;;;5071699;28;20429;-81
2022/12/14 01:16:03;;;;;;;56.85;31.20;;;;;;;;;;5070986;28;21735;-81
2022/12/14 01:18:29;;;;;;;58.85;30.77;;;;;;;;;;5073873;28;20418;-82
2022/12/14 01:20:57;;;;;;;53.40;29.45;;;;;;;;;;5071326;28;20429;-85
2022/12/14 01:23:23;;;;;;;51.42;29.20;;;;;;;;;;5072230;28;20413;-81
2022/12/14 01:25:50;;;;;;;56.88;31.40;;;;;;;;;;5071926;28;20419;-81
2022/12/14 01:28:16;;;;;;;55.22;30.58;;;;;;;;;;5074675;28;20413;-81
2022/12/14 01:30:43;;;;;;;57.63;30.20;;;;;;;;;;5073113;28;20776;-83
2022/12/14 01:33:10;;;;;;;54.95;29.23;;;;;;;;;;5071253;28;20417;-81
2022/12/14 01:35:36;;;;;;;56.33;29.85;;;;;;;;;;5072779;28;20425;-81
2022/12/14 01:38:03;;;;;;;59.97;30.23;;;;;;;;;;5068291;28;20409;-83
2022/12/14 01:40:29;;;;;;;54.22;29.88;;;;;;;;;;5072165;28;20429;-82
2022/12/14 01:42:56;;;;;;;52.42;28.92;;;;;;;;;;5072280;28;20834;-82
2022/12/14 01:45:22;;;;;;;55.10;29.52;;;;;;;;;;5069249;28;20489;-81
2022/12/14 01:47:52;;;;;;;51.30;28.30;;;;;;;;;;5069875;28;20403;-82
2022/12/14 01:50:22;;;;;;;52.30;28.33;;;;;;;;;;5070440;28;20421;-81
2022/12/14 01:52:50;;;;;;;50.30;28.20;;;;;;;;;;5068025;28;20422;-83
2022/12/14 01:55:19;;;;;;;54.50;29.00;;;;;;;;;;5073374;28;20425;-83
2022/12/14 01:57:48;;;;;;;53.55;28.17;;;;;;;;;;5074943;28;20392;-81
2022/12/14 02:00:15;;;;;;;51.83;28.83;;;;;;;;;;5073826;28;20424;-82
2022/12/14 02:02:45;;;;;;;51.47;28.27;;;;;;;;;;5071173;28;20430;-81
2022/12/14 02:05:13;;;;;;;53.93;28.77;;;;;;;;;;5072047;28;20430;-83
2022/12/14 02:07:40;;;;;;;55.72;28.05;;;;;;;;;;5068145;28;20442;-82
2022/12/14 02:10:08;;;;;;;48.55;27.40;;;;;;;;;;5073403;28;20423;-81
2022/12/14 02:12:36;;;;;;;49.30;28.45;;;;;;;;;;5074265;28;20427;-81
2022/12/14 02:15:03;;;;;;;54.47;28.52;;;;;;;;;;5069300;28;20425;-81
2022/12/14 02:17:29;;;;;;;49.72;28.48;;;;;;;;;;5063534;28;20429;-83
2022/12/14 02:19:57;;;;;;;48.92;28.05;;;;;;;;;;5075965;28;20947;-81
2022/12/14 02:22:44;;;;;;;47.35;26.27;;;;;;;;;;5074596;28;20403;-83
2022/12/14 02:25:29;;;;;;;50.78;25.38;;;;;;;;;;5048028;28;20413;-82
2022/12/14 02:28:03;;;;;;;47.70;26.65;;;;;;;;;;5058925;28;20411;-82
2022/12/14 02:30:34;;;;;;;48.72;26.63;;;;;;;;;;5073379;28;20933;-81
2022/12/14 02:33:05;;;;;;;45.47;25.13;;;;;;;;;;5073823;28;20411;-81
2022/12/14 02:35:37;;;;;;;46.55;25.65;;;;;;;;;;5077094;28;20915;-83
2022/12/14 02:38:10;;;;;;;46.88;27.13;;;;;;;;;;5076202;28;20418;-81
2022/12/14 02:40:39;;;;;;;44.03;24.50;;;;;;;;;;5072832;28;20486;-81
2022/12/14 02:43:11;;;;;;;46.15;24.58;;;;;;;;;;5073882;28;20425;-81
2022/12/14 02:45:40;;;;;;;46.33;26.98;;;;;;;;;;5077231;28;20415;-83
2022/12/14 02:48:09;;;;;;;52.45;26.10;;;;;;;;;;5075393;28;20409;-81
2022/12/14 02:50:39;;;;;;;44.67;25.37;;;;;;;;;;5079159;28;20424;-81
2022/12/14 02:53:09;;;;;;;43.70;24.40;;;;;;;;;;5071931;28;20417;-81
2022/12/14 02:55:38;;;;;;;48.13;25.42;;;;;;;;;;5073313;28;20429;-81
2022/12/14 02:58:06;;;;;;;47.25;24.42;;;;;;;;;;5076677;28;20429;-82
2022/12/14 03:00:34;;;;;;;46.70;25.00;;;;;;;;;;5072530;28;20421;-81
2022/12/14 03:03:02;;;;;;;45.47;25.20;;;;;;;;;;5075189;28;20419;-81
2022/12/14 03:05:29;;;;;;;44.42;24.48;;;;;;;;;;5078538;28;20433;-81
2022/12/14 03:07:56;;;;;;;45.75;25.38;;;;;;;;;;5075413;28;20405;-81
2022/12/14 03:10:27;;;;;;;48.72;25.45;;;;;;;;;;5079790;28;20421;-82
2022/12/14 03:12:57;;;;;;;49.70;27.45;;;;;;;;;;5078672;28;20430;-81
2022/12/14 03:15:25;;;;;;;45.30;24.63;;;;;;;;;;5074951;28;20421;-81
2022/12/14 03:17:54;;;;;;;48.42;24.17;;;;;;;;;;5078981;28;20420;-84
2022/12/14 03:20:24;;;;;;;44.58;24.48;;;;;;;;;;5082424;28;20425;-82
2022/12/14 03:22:53;;;;;;;48.97;25.10;;;;;;;;;;5072175;28;20402;-81
2022/12/14 03:25:21;;;;;;;50.15;25.98;;;;;;;;;;5077194;28;20953;-81
2022/12/14 03:27:50;;;;;;;48.13;26.40;;;;;;;;;;5074159;28;20414;-84
2022/12/14 03:30:18;;;;;;;44.83;25.35;;;;;;;;;;5076324;28;20419;-81
2022/12/14 03:32:47;;;;;;;49.85;26.20;;;;;;;;;;5072527;28;20506;-81
2022/12/14 03:35:16;;;;;;;42.80;24.58;;;;;;;;;;5073349;28;20431;-81
2022/12/14 03:37:47;;;;;;;47.85;26.17;;;;;;;;;;5071864;28;20425;-82
2022/12/14 03:40:14;;;;;;;48.03;25.73;;;;;;;;;;5076007;28;20435;-82
2022/12/14 03:42:44;;;;;;;49.83;27.88;;;;;;;;;;5078045;28;20427;-81
2022/12/14 03:45:15;;;;;;;50.75;27.00;;;;;;;;;;5071457;28;20434;-83
2022/12/14 03:47:49;;;;;;;45.47;24.20;;;;;;;;;;5076190;28;20894;-81
2022/12/14 03:50:17;;;;;;;48.75;25.75;;;;;;;;;;5067222;28;20420;-82
2022/12/14 03:52:49;;;;;;;45.90;24.90;;;;;;;;;;5069037;28;20437;-82
2022/12/14 03:55:22;;;;;;;50.53;26.25;;;;;;;;;;5078247;28;20412;-81
2022/12/14 03:57:56;;;;;;;46.15;24.88;;;;;;;;;;5072846;28;20410;-81
2022/12/14 04:00:23;;;;;;;42.55;24.80;;;;;;;;;;5073742;28;20435;-81
2022/12/14 04:02:53;;;;;;;44.53;24.02;;;;;;;;;;5071133;28;20420;-83
2022/12/14 04:05:22;;;;;;;44.30;24.52;;;;;;;;;;5068695;28;20512;-81
2022/12/14 04:07:55;;;;;;;44.05;23.85;;;;;;;;;;5071616;28;20438;-82
2022/12/14 04:18:58;;;;;;;42.83;24.42;;;;;;;;;;5071802;28;20418;-81
2022/12/14 04:21:29;;;;;;;39.35;24.10;;;;;;;;;;5073855;28;20488;-82
2022/12/14 04:26:48;;;;;;;45.72;25.17;;;;;;;;;;5074334;28;20435;-82
2022/12/14 04:32:04;;;;;;;45.17;23.85;;;;;;;;;;5063059;28;20420;-81
2022/12/14 04:34:31;;;;;;;44.03;23.98;;;;;;;;;;5072234;28;20408;-81
2022/12/14 04:37:00;;;;;;;41.88;22.98;;;;;;;;;;5072885;28;20425;-81
2022/12/14 04:39:31;;;;;;;41.90;23.15;;;;;;;;;;5072456;28;20424;-81
2022/12/14 04:42:00;;;;;;;39.72;23.45;;;;;;;;;;5068559;28;20432;-81
2022/12/14 04:44:28;;;;;;;42.87;23.50;;;;;;;;;;5072700;28;20506;-81
2022/12/14 04:46:54;;;;;;;39.40;22.58;;;;;;;;;;5070010;28;20919;-82
2022/12/14 04:49:25;;;;;;;45.72;25.08;;;;;;;;;;5067213;28;20420;-81
2022/12/14 04:51:55;;;;;;;42.95;23.40;;;;;;;;;;5076015;28;20424;-82
2022/12/14 04:54:25;;;;;;;42.35;23.33;;;;;;;;;;5075482;28;20412;-80
2022/12/14 04:56:56;;;;;;;44.35;25.00;;;;;;;;;;5072653;28;20414;-81
2022/12/14 04:59:23;;;;;;;43.53;23.85;;;;;;;;;;5068323;28;20439;-81
2022/12/14 05:01:53;;;;;;;43.17;24.08;;;;;;;;;;5076115;28;20436;-82
2022/12/14 05:04:25;;;;;;;42.80;22.75;;;;;;;;;;5068103;28;20430;-81
2022/12/14 05:06:57;;;;;;;43.65;23.88;;;;;;;;;;5073151;28;20427;-81
2022/12/14 05:09:27;;;;;;;41.67;21.97;;;;;;;;;;5067073;28;20431;-83
2022/12/14 05:11:59;;;;;;;41.33;23.20;;;;;;;;;;5071904;28;20417;-81
2022/12/14 05:14:29;;;;;;;44.63;24.67;;;;;;;;;;5067718;28;20910;-82
2022/12/14 05:16:56;;;;;;;41.43;23.47;;;;;;;;;;5073463;28;20423;-81
2022/12/14 05:19:25;;;;;;;42.38;24.55;;;;;;;;;;5068969;28;20423;-81
2022/12/14 05:21:51;;;;;;;43.05;24.55;;;;;;;;;;5072981;28;20423;-81
2022/12/14 05:24:18;;;;;;;44.90;25.00;;;;;;;;;;5073676;28;20410;-81
2022/12/14 05:26:44;;;;;;;46.58;24.92;;;;;;;;;;5073293;28;20432;-83
2022/12/14 05:29:12;;;;;;;43.75;23.58;;;;;;;;;;5079858;28;20413;-82
2022/12/14 05:31:38;;;;;;;47.25;27.38;;;;;;;;;;5080489;28;20407;-81
2022/12/14 05:34:05;;;;;;;47.20;26.98;;;;;;;;;;5076241;28;20405;-82
2022/12/14 05:36:31;;;;;;;40.20;23.98;;;;;;;;;;5074161;28;20423;-81
2022/12/14 05:38:58;;;;;;;43.23;25.27;;;;;;;;;;5069337;28;20427;-81
2022/12/14 05:41:24;;;;;;;42.58;24.90;;;;;;;;;;5070448;28;20433;-85
2022/12/14 05:43:51;;;;;;;45.85;25.35;;;;;;;;;;5071416;28;20464;-80
2022/12/14 05:46:18;;;;;;;41.92;24.58;;;;;;;;;;5064960;28;20514;-81
2022/12/14 05:48:45;;;;;;;43.90;25.05;;;;;;;;;;5065846;28;20421;-82
2022/12/14 05:51:13;;;;;;;47.60;25.75;;;;;;;;;;5069598;28;20431;-81
2022/12/14 05:53:39;;;;;;;42.25;24.63;;;;;;;;;;5068035;28;20426;-82
2022/12/14 05:56:07;;;;;;;43.47;25.35;;;;;;;;;;5068604;28;20429;-81
2022/12/14 05:58:34;;;;;;;45.70;24.48;;;;;;;;;;5069637;28;20795;-81
2022/12/14 06:01:00;;;;;;;41.20;24.20;;;;;;;;;;5072223;28;20421;-80
2022/12/14 06:03:28;;;;;;;42.25;25.13;;;;;;;;;;5075271;28;20409;-81
2022/12/14 06:05:55;;;;;;;45.28;26.08;;;;;;;;;;5074099;28;20431;-81
2022/12/14 06:08:21;;;;;;;43.42;24.52;;;;;;;;;;5076105;28;20420;-81
2022/12/14 06:10:47;;;;;;;41.47;23.90;;;;;;;;;;5076245;28;20425;-81
2022/12/14 06:13:14;;;;;;;45.67;25.00;;;;;;;;;;5075131;28;20931;-81
2022/12/14 06:15:40;;;;;;;43.30;23.90;;;;;;;;;;5068767;28;20440;-80
2022/12/14 06:18:06;;;;;;;43.03;24.27;;;;;;;;;;5071690;28;20413;-80
2022/12/14 06:20:34;;;;;;;42.58;24.85;;;;;;;;;;5069075;28;20429;-81
2022/12/14 06:23:00;;;;;;;40.20;23.33;;;;;;;;;;5068609;28;20413;-87
2022/12/14 06:25:27;;;;;;;43.00;24.45;;;;;;;;;;5078384;28;20901;-81
2022/12/14 06:27:54;;;;;;;44.80;25.33;;;;;;;;;;5075297;28;20426;-82
2022/12/14 06:30:20;;;;;;;40.10;23.67;;;;;;;;;;5071913;28;20429;-81
2022/12/14 06:32:47;;;;;;;41.13;23.40;;;;;;;;;;5076276;28;20397;-81
2022/12/14 06:35:13;;;;;;;46.97;25.48;;;;;;;;;;5073674;28;20420;-81
2022/12/14 06:37:41;;;;;;;40.63;23.10;;;;;;;;;;5077308;28;20427;-82
2022/12/14 06:40:08;;;;;;;42.08;24.10;;;;;;;;;;5075533;28;20415;-81
2022/12/14 06:42:34;;;;;;;41.07;23.00;;;;;;;;;;5072547;28;20436;-81
2022/12/14 06:45:00;;;;;;;40.00;24.15;;;;;;;;;;5072570;28;20425;-81
2022/12/14 06:47:27;;;;;;;40.78;23.05;;;;;;;;;;5075514;28;20415;-80
2022/12/14 06:49:53;;;;;;;47.47;26.33;;;;;;;;;;5070770;28;20427;-80
2022/12/14 06:52:19;;;;;;;45.47;26.75;;;;;;;;;;5074840;28;20432;-82
2022/12/14 06:54:48;;;;;;;47.40;27.00;;;;;;;;;;5076098;28;20425;-81
2022/12/14 06:57:14;;;;;;;42.53;24.00;;;;;;;;;;5074726;28;20441;-81
2022/12/14 06:59:41;;;;;;;45.25;26.10;;;;;;;;;;5074837;28;20854;-81
2022/12/14 07:02:09;;;;;;;44.63;23.75;;;;;;;;;;5067150;28;20469;-81
2022/12/14 07:04:36;;;;;;;40.88;24.23;;;;;;;;;;5066215;28;20950;-81
2022/12/14 07:07:02;;;;;;;40.70;23.40;;;;;;;;;;5070910;28;20421;-81
2022/12/14 07:09:28;;;;;;;38.75;22.60;;;;;;;;;;5075216;28;20422;-81
2022/12/14 07:11:56;;;;;;;40.38;25.40;;;;;;;;;;5076980;28;20402;-83
2022/12/14 07:14:22;;;;;;;41.03;24.60;;;;;;;;;;5075168;28;20421;-81
2022/12/14 07:16:49;;;;;;;41.90;25.57;;;;;;;;;;5074404;28;21017;-81
2022/12/14 07:19:15;;;;;;;42.35;25.70;;;;;;;;;;5070838;28;20433;-82
2022/12/14 07:21:41;;;;;;;39.33;24.47;;;;;;;;;;5074361;28;20479;-80
2022/12/14 07:24:08;;;;;;;45.30;25.10;;;;;;;;;;5074401;28;20440;-81
2022/12/14 07:26:36;;;;;;;45.22;25.20;;;;;;;;;;5073420;28;20428;-80
2022/12/14 07:29:05;;;;;;;42.08;26.25;;;;;;;;;;5074801;28;20444;-80
2022/12/14 07:31:31;;;;;;;50.08;26.67;;;;;;;;;;5075069;28;20409;-83
2022/12/14 07:33:58;;;;;;;43.20;25.30;;;;;;;;;;5073456;28;20418;-82
2022/12/14 07:36:25;;;;;;;46.38;26.40;;;;;;;;;;5078937;28;20936;-80
2022/12/14 07:38:52;;;;;;;43.38;24.08;;;;;;;;;;5075647;28;20492;-81
2022/12/14 07:41:19;;;;;;;39.35;23.30;;;;;;;;;;5075781;28;20427;-81
2022/12/14 07:43:46;;;;;;;45.55;25.42;;;;;;;;;;5076035;28;20424;-85
2022/12/14 07:46:15;;;;;;;38.17;24.08;;;;;;;;;;5075560;28;20425;-81
2022/12/14 07:48:43;;;;;;;37.95;22.70;;;;;;;;;;5076509;28;20436;-81
2022/12/14 07:51:10;;;;;;;39.13;23.95;;;;;;;;;;5070610;28;20416;-81
2022/12/14 07:53:37;;;;;;;42.30;24.88;;;;;;;;;;5073664;28;20921;-80
2022/12/14 07:56:04;;;;;;;40.88;23.77;;;;;;;;;;5071187;28;20401;-81
2022/12/14 07:58:31;;;;;;;39.72;22.30;;;;;;;;;;5071189;28;20489;-81
2022/12/14 08:01:07;;;;;;;42.08;22.98;;;;;;;;;;5068974;28;20427;-80
2022/12/14 08:03:35;;;;;;;40.05;23.25;;;;;;;;;;5070762;28;20424;-82
2022/12/14 08:06:03;;;;;;;41.55;22.95;;;;;;;;;;5073880;28;20410;-81
2022/12/14 08:08:29;;;;;;;41.33;23.27;;;;;;;;;;5075195;28;20793;-81
2022/12/14 08:10:56;;;;;;;41.17;24.67;;;;;;;;;;5076300;28;20419;-81
2022/12/14 08:13:22;;;;;;;45.30;23.25;;;;;;;;;;5074556;28;20412;-80
2022/12/14 08:15:49;;;;;;;41.95;24.52;;;;;;;;;;5074975;28;20433;-82
2022/12/14 08:18:15;;;;;;;38.08;21.90;;;;;;;;;;5074328;28;20451;-81
2022/12/14 08:20:43;;;;;;;41.35;24.20;;;;;;;;;;5077018;28;20447;-80
2022/12/14 08:23:10;;;;;;;40.75;24.35;;;;;;;;;;5071251;28;20416;-81
2022/12/14 08:25:36;;;;;;;42.13;24.75;;;;;;;;;;5071540;28;20417;-80
2022/12/14 08:28:02;;;;;;;42.42;26.30;;;;;;;;;;5073856;28;20413;-80
2022/12/14 08:30:29;;;;;;;42.10;24.20;;;;;;;;;;5070674;28;20524;-81
2022/12/14 08:32:55;;;;;;;43.10;24.60;;;;;;;;;;5071078;28;20420;-80
2022/12/14 08:35:21;;;;;;;45.47;24.98;;;;;;;;;;5072244;28;20415;-80
2022/12/14 08:37:51;;;;;;;45.92;25.60;;;;;;;;;;5070975;28;20411;-81
2022/12/14 08:40:18;;;;;;;45.63;25.17;;;;;;;;;;5075627;28;20410;-81
2022/12/14 08:42:44;;;;;;;43.72;25.58;;;;;;;;;;5072545;28;20447;-81
2022/12/14 08:45:11;;;;;;;45.63;27.50;;;;;;;;;;5076331;28;20797;-81
2022/12/14 08:47:37;;;;;;;44.67;26.10;;;;;;;;;;5074296;28;20438;-82
2022/12/14 08:50:04;;;;;;;43.50;24.60;;;;;;;;;;5075204;28;20438;-81
2022/12/14 08:52:30;;;;;;;40.50;25.88;;;;;;;;;;5075123;28;20430;-83
2022/12/14 08:54:58;;;;;;;47.90;28.33;;;;;;;;;;5078692;28;20405;-81
2022/12/14 08:57:25;;;;;;;43.67;25.80;;;;;;;;;;5073239;28;20923;-81
2022/12/14 08:59:51;;;;;;;45.05;26.35;;;;;;;;;;5076281;28;20408;-81
2022/12/14 09:02:17;;;;;;;44.58;25.88;;;;;;;;;;5073448;28;20408;-81
2022/12/14 09:04:44;;;;;;;41.35;26.02;;;;;;;;;;5070371;28;20808;-81
2022/12/14 09:07:10;;;;;;;42.13;25.50;;;;;;;;;;5073473;28;20484;-81
2022/12/14 09:09:37;;;;;;;43.95;27.30;;;;;;;;;;5070174;28;20903;-81
2022/12/14 09:12:06;;;;;;;41.92;27.23;;;;;;;;;;5071611;28;20885;-81
2022/12/14 09:14:33;;;;;;;42.83;26.65;;;;;;;;;;5069678;28;20415;-82
2022/12/14 09:17:00;;;;;;;44.53;27.17;;;;;;;;;;5072634;28;20415;-80
2022/12/14 09:19:26;;;;;;;43.63;26.73;;;;;;;;;;5074509;28;20419;-81
2022/12/14 09:21:53;;;;;;;43.90;26.50;;;;;;;;;;5070539;28;20790;-81
2022/12/14 09:24:19;;;;;;;40.47;24.50;;;;;;;;;;5072127;28;20418;-81
2022/12/14 09:26:46;;;;;;;43.20;25.60;;;;;;;;;;5073083;28;20469;-80
2022/12/14 09:29:15;;;;;;;44.08;26.42;;;;;;;;;;5069641;28;20425;-81
2022/12/14 09:31:41;;;;;;;46.73;26.90;;;;;;;;;;5072494;28;20404;-81
2022/12/14 09:34:08;;;;;;;46.17;26.83;;;;;;;;;;5072518;28;20418;-81
2022/12/14 09:36:34;;;;;;;47.58;27.75;;;;;;;;;;5073968;28;20796;-82
2022/12/14 09:39:01;;;;;;;43.33;26.95;;;;;;;;;;5070836;28;20414;-83
2022/12/14 09:41:32;;;;;;;44.63;26.90;;;;;;;;;;5073147;28;20425;-81
2022/12/14 09:44:01;;;;;;;45.20;28.75;;;;;;;;;;5077422;28;20404;-82
2022/12/14 09:46:34;;;;;;;47.40;28.33;;;;;;;;;;5076010;28;20425;-81
2022/12/14 09:49:01;;;;;;;47.22;28.45;;;;;;;;;;5074249;28;20419;-81
2022/12/14 09:51:30;;;;;;;45.55;29.10;;;;;;;;;;5074654;28;20414;-81
2022/12/14 09:54:02;;;;;;;43.53;27.35;;;;;;;;;;5077493;28;20429;-83
2022/12/14 09:56:28;;;;;;;41.90;27.60;;;;;;;;;;5069140;28;20442;-81
2022/12/14 09:58:56;;;;;;;46.17;27.17;;;;;;;;;;5078208;28;20416;-81
2022/12/14 10:01:32;;;;;;;46.53;28.52;;;;;;;;;;5078124;28;20432;-81
2022/12/14 10:04:05;;;;;;;44.70;27.73;;;;;;;;;;5076199;28;20901;-81
2022/12/14 10:06:34;;;;;;;46.53;28.35;;;;;;;;;;5071823;28;20403;-81
2022/12/14 10:09:07;;;;;;;50.13;27.67;;;;;;;;;;5069607;28;20514;-81
2022/12/14 10:11:37;;;;;;;46.58;28.65;;;;;;;;;;5071297;28;20801;-81
2022/12/14 10:14:07;;;;;;;40.97;27.40;;;;;;;;;;5072270;28;20472;-81
2022/12/14 10:16:37;;;;;;;44.45;28.38;;;;;;;;;;5069152;28;20428;-81
2022/12/14 10:19:15;;;;;;;45.40;27.15;;;;;;;;;;5072733;28;20914;-81
2022/12/14 10:21:45;;;;;;;42.95;27.58;;;;;;;;;;5069366;28;20823;-83
2022/12/14 10:24:14;;;;;;;45.42;26.00;;;;;;;;;;5072060;28;21036;-81
2022/12/14 10:26:43;;;;;;;41.70;26.73;;;;;;;;;;5071549;28;20514;-81
2022/12/14 10:29:12;;;;;;;38.97;24.90;;;;;;;;;;5071489;28;20409;-81
2022/12/14 10:31:40;;;;;;;42.10;25.92;;;;;;;;;;5068539;28;20437;-81
2022/12/14 10:34:15;;;;;;;39.22;25.35;;;;;;;;;;5071029;28;20419;-82
2022/12/14 10:36:49;;;;;;;44.03;27.42;;;;;;;;;;5073568;28;20420;-82
2022/12/14 10:39:20;;;;;;;41.20;27.73;;;;;;;;;;5071902;28;20416;-81
2022/12/14 10:41:52;;;;;;;43.77;26.60;;;;;;;;;;5070928;28;20481;-81
2022/12/14 10:44:21;;;;;;;37.60;25.45;;;;;;;;;;5075866;28;20457;-83
2022/12/14 10:46:51;;;;;;;43.88;26.98;;;;;;;;;;5075826;28;20429;-81
2022/12/14 10:49:22;;;;;;;40.80;26.75;;;;;;;;;;5070709;28;20408;-82
2022/12/14 10:51:51;;;;;;;42.25;26.10;;;;;;;;;;5077397;28;20441;-82
2022/12/14 10:54:23;;;;;;;41.53;26.08;;;;;;;;;;5074491;28;20421;-81
2022/12/14 10:56:49;;;;;;;42.75;26.30;;;;;;;;;;5077086;28;20414;-82
2022/12/14 10:59:24;;;;;;;37.92;24.85;;;;;;;;;;5079470;28;20415;-81
2022/12/14 11:01:52;;;;;;;42.97;25.52;;;;;;;;;;5078433;28;20448;-81
2022/12/14 11:04:28;;;;;;;36.80;25.40;;;;;;;;;;5076266;28;20454;-82
2022/12/14 11:06:54;;;;;;;36.55;24.38;;;;;;;;;;5078894;28;20415;-82
2022/12/14 11:09:21;;;;;;;42.30;26.10;;;;;;;;;;5079275;28;20417;-83
2022/12/14 11:11:47;;;;;;;43.78;26.20;;;;;;;;;;5079702;28;20407;-82
2022/12/14 11:14:15;;;;;;;40.33;25.43;;;;;;;;;;5076279;28;20551;-83
2022/12/14 11:16:41;;;;;;;38.83;25.37;;;;;;;;;;5074251;28;20431;-81
2022/12/14 11:19:15;;;;;;;40.55;26.63;;;;;;;;;;5074154;28;20426;-81
2022/12/14 11:21:43;;;;;;;47.63;27.00;;;;;;;;;;5078633;28;20400;-83
2022/12/14 11:24:20;;;;;;;41.80;26.40;;;;;;;;;;5076755;28;20445;-84
2022/12/14 11:26:47;;;;;;;38.57;26.10;;;;;;;;;;5072346;28;20515;-81
2022/12/14 11:29:16;;;;;;;39.38;23.83;;;;;;;;;;5077121;28;20480;-81
2022/12/14 11:31:44;;;;;;;40.28;25.25;;;;;;;;;;5078346;28;20427;-84
2022/12/14 11:34:20;;;;;;;39.60;24.77;;;;;;;;;;5074501;28;20420;-82
2022/12/14 11:36:48;;;;;;;41.27;27.23;;;;;;;;;;5073511;28;20485;-81
2022/12/14 11:39:20;;;;;;;39.53;25.50;;;;;;;;;;5075124;28;20843;-82
2022/12/14 11:41:47;;;;;;;43.50;27.75;;;;;;;;;;5078666;28;20417;-84
2022/12/14 11:44:22;;;;;;;43.60;28.63;;;;;;;;;;5072068;28;20429;-81
2022/12/14 11:46:51;;;;;;;41.03;26.23;;;;;;;;;;5076011;28;20425;-84
2022/12/14 11:49:25;;;;;;;44.00;28.13;;;;;;;;;;5075286;28;20416;-83
2022/12/14 11:52:09;;;;;;;51.17;26.77;;;;;;;;;;5072785;28;20421;-82
2022/12/14 11:54:37;;;;;;;35.97;21.70;;;;;;;;;;5072172;28;20316;-83
2022/12/14 11:57:06;;;;;;;33.73;21.03;;;;;;;;;;5080163;28;20443;-82
2022/12/14 11:59:37;;;;;;;29.60;21.33;;;;;;;;;;5077599;28;20554;-82
2022/12/14 12:02:16;;;;;;;38.20;21.03;;;;;;;;;;5077720;28;20462;-83
2022/12/14 12:04:44;;;;;;;33.30;20.80;;;;;;;;;;5076608;28;20478;-84
2022/12/14 12:07:13;;;;;;;35.70;20.00;;;;;;;;;;5074567;28;20685;-82
2022/12/14 12:09:41;;;;;;;36.05;20.13;;;;;;;;;;5071142;28;20477;-82
2022/12/14 12:12:15;;;;;;;29.07;18.30;;;;;;;;;;5075248;28;20209;-83
2022/12/14 12:14:41;;;;;;;32.70;19.20;;;;;;;;;;5073340;28;20484;-83
2022/12/14 12:17:17;;;;;;;36.38;22.85;;;;;;;;;;5075856;28;20205;-82
2022/12/14 12:19:43;;;;;;;38.10;23.52;;;;;;;;;;5080040;28;20291;-81
2022/12/14 12:22:11;;;;;;;36.83;21.90;;;;;;;;;;5078967;28;20208;-81
2022/12/14 12:24:42;;;;;;;33.20;20.23;;;;;;;;;;5077361;28;20232;-82
2022/12/14 12:27:12;;;;;;;32.40;20.70;;;;;;;;;;5072404;28;20453;-83
2022/12/14 12:29:42;;;;;;;31.73;20.13;;;;;;;;;;5075838;28;20317;-82
2022/12/14 12:32:13;;;;;;;27.87;18.37;;;;;;;;;;5076254;28;20438;-82
2022/12/14 12:34:43;;;;;;;26.23;19.25;;;;;;;;;;5078702;28;20465;-82
2022/12/14 12:37:13;;;;;;;35.78;20.00;;;;;;;;;;5074875;28;20648;-84
2022/12/14 12:39:43;;;;;;;41.42;21.83;;;;;;;;;;5074171;28;20236;-83
2022/12/14 12:42:18;;;;;;;41.05;21.05;;;;;;;;;;5076613;28;20234;-84
2022/12/14 12:44:47;;;;;;;31.92;18.50;;;;;;;;;;5073911;28;20236;-82
2022/12/14 12:47:16;;;;;;;30.55;20.13;;;;;;;;;;5075837;28;20200;-82
2022/12/14 12:49:43;;;;;;;34.08;19.02;;;;;;;;;;5076034;28;20228;-83
2022/12/14 12:52:15;;;;;;;34.35;19.02;;;;;;;;;;5076128;28;20212;-82
2022/12/14 12:54:47;;;;;;;29.55;17.98;;;;;;;;;;5079807;28;20234;-83
2022/12/14 12:57:16;;;;;;;28.08;17.45;;;;;;;;;;5069528;28;20474;-82
2022/12/14 12:59:45;;;;;;;32.13;18.48;;;;;;;;;;5077601;28;20236;-82
2022/12/14 13:02:17;;;;;;;28.38;17.52;;;;;;;;;;5076715;28;20197;-82
2022/12/14 13:04:44;;;;;;;28.20;17.83;;;;;;;;;;5075192;28;20236;-82
2022/12/14 13:07:16;;;;;;;26.00;16.67;;;;;;;;;;5076862;28;20510;-82
2022/12/14 13:09:47;;;;;;;29.83;18.60;;;;;;;;;;5080262;28;20224;-83
2022/12/14 13:12:16;;;;;;;26.40;16.40;;;;;;;;;;5075762;28;20220;-82
2022/12/14 13:14:44;;;;;;;24.08;17.33;;;;;;;;;;5072254;28;20274;-83
2022/12/14 13:17:16;;;;;;;30.53;18.33;;;;;;;;;;5071148;28;20211;-82
2022/12/14 13:19:44;;;;;;;35.42;18.20;;;;;;;;;;5075949;28;20861;-85
2022/12/14 13:22:11;;;;;;;34.03;18.07;;;;;;;;;;5074946;28;20211;-83
2022/12/14 13:24:38;;;;;;;28.13;17.77;;;;;;;;;;5073409;28;20899;-82
2022/12/14 13:27:16;;;;;;;28.35;16.65;;;;;;;;;;5078811;28;20438;-82
2022/12/14 13:29:49;;;;;;;22.58;16.45;;;;;;;;;;5074639;28;20235;-83
2022/12/14 13:32:19;;;;;;;28.57;17.30;;;;;;;;;;5076408;28;20215;-81
2022/12/14 13:34:51;;;;;;;25.08;16.73;;;;;;;;;;5077751;28;20465;-82
2022/12/14 13:37:32;;;;;;;28.83;16.27;;;;;;;;;;5070673;28;20240;-83
2022/12/14 13:40:13;;;;;;;22.63;14.55;;;;;;;;;;5076021;28;20237;-82
2022/12/14 13:42:45;;;;;;;29.60;16.13;;;;;;;;;;5071011;28;20201;-82
2022/12/14 13:45:17;;;;;;;22.40;13.73;;;;;;;;;;5066764;28;20213;-82
2022/12/14 13:47:44;;;;;;;25.73;17.13;;;;;;;;;;5075532;28;20484;-83
2022/12/14 13:50:20;;;;;;;33.05;17.20;;;;;;;;;;5072881;28;20211;-83
2022/12/14 13:52:48;;;;;;;23.08;15.65;;;;;;;;;;5073829;28;20291;-82
2022/12/14 13:55:27;;;;;;;25.00;16.00;;;;;;;;;;5079405;28;20231;-81
2022/12/14 13:58:05;;;;;;;26.40;16.33;;;;;;;;;;5072103;28;20287;-82
2022/12/14 14:00:51;;;;;;;24.98;16.70;;;;;;;;;;5077616;28;20202;-86
2022/12/14 14:03:48;;;;;;;20.75;13.98;;;;;;;;;;5079336;28;20231;-83
2022/12/14 14:06:16;;;;;;;26.83;15.45;;;;;;;;;;5035831;28;20210;-83
2022/12/14 14:08:43;;;;;;;25.90;17.10;;;;;;;;;;5065928;28;20230;-84
2022/12/14 14:11:31;;;;;;;35.30;19.90;;;;;;;;;;5071814;28;20223;-82
2022/12/14 14:14:03;;;;;;;33.60;19.50;;;;;;;;;;5066735;28;20737;-82
2022/12/14 14:16:32;;;;;;;54.65;24.35;;;;;;;;;;5074414;28;20808;-82
2022/12/14 14:19:01;;;;;;;43.50;21.73;;;;;;;;;;5064913;28;20705;-82
2022/12/14 14:21:39;;;;;;;47.85;22.95;;;;;;;;;;5075505;28;20273;-84
2022/12/14 14:24:18;;;;;;;38.47;21.70;;;;;;;;;;5076740;28;20229;-83
2022/12/14 14:26:57;;;;;;;28.30;19.25;;;;;;;;;;5082065;28;20677;-82
2022/12/14 14:29:26;;;;;;;32.25;19.48;;;;;;;;;;5077770;28;20279;-82
2022/12/14 14:31:54;;;;;;;32.03;20.77;;;;;;;;;;5077952;28;20261;-83
2022/12/14 14:34:24;;;;;;;33.95;17.17;;;;;;;;;;5073177;28;20928;-83
2022/12/14 14:36:51;;;;;;;32.45;18.20;;;;;;;;;;5077548;28;20200;-82
2022/12/14 14:39:35;;;;;;;27.08;17.85;;;;;;;;;;5076265;28;20238;-83